Burgh le Marsh, United Kingdom
Current Conditions -  °F | °C
As of 9:50 AM on Sunday 21 Dec 2014 (Local Time) from EGXC Reporting Station
Broken Clouds Broken Clouds  
Wind Chill: 40°   Ceiling: 4200
Heat Index: 46°   Visibility: 6mi
Dew Point: 41°   Wind: 15mph
Humidity: 81%   Direction: 230°SW
Pressure: 30.18"   Gusts: NA
Location:  53.16°N, 0.24°E
Report Text: EGXC 210950Z 23013KT 9999 SCT022 BKN042 08/05 Q1022 WHT
Loading
Personal Weather Stations






























Interactive Weather Map New forecast layout! Learn more

10-Day Weather Forecast

Advertisements
Track Severe Weather on mobile